Ronnie Rogers — WDD2270 — position and weather

sailwx.info

Track history (hours):
 
Tides and Currents Weather Stations Pressure Air Temp Water Temp Dewpoint Dewpoint Depression Visibility Wind Speed Wind Dir Waves Ship Positions

Ronnie Rogers

More information available from US FCC via Universal Licensing System and Coast Guard Vessel Documentation Center.

Last reported at 2014-Jul-29 12:33 UTC. Time now 2014-Jul-31 09:26 UTC.
Position N 28°42' W 095°56'.

Length 29 m; draft 3 m.

Type: Towing. MMSI: 367113160.

Date/timePositionNaut miles runAvg speedWind from/ knotsBaromVisibWave heightAir tempDewpointWater temp
2014-Jul-29 12:33N 28°42' W 095°56'4 3.4
2014-Jul-29 11:15N 28°44' W 095°51'3 4.2
2014-Jul-29 10:33N 28°45' W 095°48'4 4.1
2014-Jul-29 09:33N 28°44' W 095°43'4 3.9
2014-Jul-29 08:33N 28°46' W 095°39'3 3.3
2014-Jul-29 07:33N 28°47' W 095°36'4 3.4
2014-Jul-29 06:26N 28°49' W 095°32'3 3.6
2014-Jul-29 05:33N 28°51' W 095°29'3 3.3
2014-Jul-29 04:33N 28°53' W 095°26'2 2.4
2014-Jul-29 03:33N 28°54' W 095°24'2 2.1
2014-Jul-29 02:33N 28°55' W 095°22'23 4.2
2014-Jul-28 21:14N 29°12' W 095°04'3 4.5
2014-Jul-28 20:29N 29°14' W 095°02'4 4.3
2014-Jul-28 19:33N 29°17' W 094°59'10 3.9
2014-Jul-28 17:06N 29°21' W 094°49'3 5.6
2014-Jul-28 16:31N 29°24' W 094°49'6 6.2
2014-Jul-28 15:33N 29°30' W 094°52'6 5.7
2014-Jul-28 14:33N 29°35' W 094°56'6 5.8
2014-Jul-28 13:33N 29°40' W 094°59'5 5.2
2014-Jul-28 12:33N 29°44' W 095°03'5 4.5
2014-Jul-28 11:33N 29°44' W 095°08'4 4.0
2014-Jul-28 10:33N 29°44' W 095°12'0 0.1
2014-Jul-28 09:33N 29°44' W 095°12'0 0.0
2014-Jul-28 08:33N 29°44' W 095°12'0 0.0
2014-Jul-28 07:33N 29°44' W 095°12'0 0.0
2014-Jul-28 06:33N 29°44' W 095°12'0 0.0
2014-Jul-28 05:33N 29°44' W 095°12'0 0.3
2014-Jul-28 04:33N 29°44' W 095°12'0 0.0
2014-Jul-28 03:33N 29°44' W 095°12'0 0.0
2014-Jul-28 02:33N 29°44' W 095°12'0 0.0
2014-Jul-28 01:33N 29°44' W 095°12'0 0.0
2014-Jul-28 00:33N 29°44' W 095°12'0 0.2
2014-Jul-27 23:33N 29°44' W 095°12'0 0.0
2014-Jul-27 22:33N 29°44' W 095°12'0 0.0
2014-Jul-27 21:33N 29°44' W 095°12'0 0.0
2014-Jul-27 20:33N 29°44' W 095°12'0 0.0
2014-Jul-27 19:33N 29°44' W 095°12'0 0.0
2014-Jul-27 18:33N 29°44' W 095°12'0 0.0
2014-Jul-27 17:33N 29°44' W 095°12'0 0.1
2014-Jul-27 16:33N 29°44' W 095°12'0 0.0
2014-Jul-27 15:33N 29°44' W 095°12'0 0.0
2014-Jul-27 14:33N 29°44' W 095°12'0 0.0
2014-Jul-27 13:33N 29°44' W 095°12'0 0.0
2014-Jul-27 12:33N 29°44' W 095°12'0 0.0
2014-Jul-27 11:33N 29°44' W 095°12'0 0.0
2014-Jul-27 10:33N 29°44' W 095°12'0 0.0
2014-Jul-27 09:33N 29°44' W 095°12'0 0.0
2014-Jul-27 08:33N 29°44' W 095°12'3 2.6
2014-Jul-27 07:33N 29°44' W 095°09'5 5.1
2014-Jul-27 06:33N 29°47' W 095°04'0 0.3
2014-Jul-27 05:33N 29°47' W 095°05'1 1.4
2014-Jul-27 04:33N 29°46' W 095°06'1 0.8
2014-Jul-27 03:34N 29°46' W 095°05'1 0.6
2014-Jul-27 02:33N 29°45' W 095°06'0 0.0
2014-Jul-27 01:33N 29°45' W 095°06'3 2.5
2014-Jul-27 00:33N 29°47' W 095°04'4 3.6
2014-Jul-26 23:33N 29°44' W 095°02'5 4.8
2014-Jul-26 22:33N 29°40' W 094°59'6 5.5
2014-Jul-26 21:33N 29°35' W 094°56'6 6.0
2014-Jul-26 20:33N 29°30' W 094°52'6 5.8
2014-Jul-26 19:33N 29°25' W 094°50'4 4.2
2014-Jul-26 18:33N 29°21' W 094°49'0 0.0
2014-Jul-26 17:26N 29°21' W 094°49'  
2014-Jul-20 03:32N 29°28' W 094°51'5 5.5
2014-Jul-20 02:33N 29°33' W 094°54'6 5.6
2014-Jul-20 01:33N 29°38' W 094°58'5 5.5
2014-Jul-20 00:33N 29°42' W 095°01'5 5.1
2014-Jul-19 23:33N 29°46' W 095°05'5 4.8
2014-Jul-19 22:33N 29°45' W 095°11'2 1.9
2014-Jul-19 21:33N 29°44' W 095°12'0 0.1
2014-Jul-19 20:33N 29°44' W 095°12'0 0.0
2014-Jul-19 19:33N 29°44' W 095°12'0 0.0
2014-Jul-19 18:33N 29°44' W 095°12'0 0.0
2014-Jul-19 17:33N 29°44' W 095°12'0 0.0
2014-Jul-19 16:33N 29°44' W 095°12'0 0.2
2014-Jul-19 15:33N 29°44' W 095°12'0 0.4
2014-Jul-19 14:33N 29°43' W 095°13'1 0.9
2014-Jul-19 13:33N 29°44' W 095°12'  
Track history (hours):
 
Tides and Currents Weather Stations Pressure Air Temp Water Temp Dewpoint Dewpoint Depression Visibility Wind Speed Wind Dir Waves Ship Positions

Ronnie Rogers

More information available from US FCC via Universal Licensing System and Coast Guard Vessel Documentation Center.

Last reported at 2014-Jul-29 12:33 UTC. Time now 2014-Jul-31 09:26 UTC.
Position N 28°42' W 095°56'.

Length 29 m; draft 3 m.

Type: Towing. MMSI: 367113160.

Date/timePositionNaut miles runAvg speedWind from/ knotsBaromVisibWave heightAir tempDewpointWater temp
2014-Jul-29 12:33N 28°42' W 095°56'4 3.4
2014-Jul-29 11:15N 28°44' W 095°51'3 4.2
2014-Jul-29 10:33N 28°45' W 095°48'4 4.1
2014-Jul-29 09:33N 28°44' W 095°43'4 3.9
2014-Jul-29 08:33N 28°46' W 095°39'3 3.3
2014-Jul-29 07:33N 28°47' W 095°36'4 3.4
2014-Jul-29 06:26N 28°49' W 095°32'3 3.6
2014-Jul-29 05:33N 28°51' W 095°29'3 3.3
2014-Jul-29 04:33N 28°53' W 095°26'2 2.4
2014-Jul-29 03:33N 28°54' W 095°24'2 2.1
2014-Jul-29 02:33N 28°55' W 095°22'23 4.2
2014-Jul-28 21:14N 29°12' W 095°04'3 4.5
2014-Jul-28 20:29N 29°14' W 095°02'4 4.3
2014-Jul-28 19:33N 29°17' W 094°59'10 3.9
2014-Jul-28 17:06N 29°21' W 094°49'3 5.6
2014-Jul-28 16:31N 29°24' W 094°49'6 6.2
2014-Jul-28 15:33N 29°30' W 094°52'6 5.7
2014-Jul-28 14:33N 29°35' W 094°56'6 5.8
2014-Jul-28 13:33N 29°40' W 094°59'5 5.2
2014-Jul-28 12:33N 29°44' W 095°03'5 4.5
2014-Jul-28 11:33N 29°44' W 095°08'4 4.0
2014-Jul-28 10:33N 29°44' W 095°12'0 0.1
2014-Jul-28 09:33N 29°44' W 095°12'0 0.0
2014-Jul-28 08:33N 29°44' W 095°12'0 0.0
2014-Jul-28 07:33N 29°44' W 095°12'0 0.0
2014-Jul-28 06:33N 29°44' W 095°12'0 0.0
2014-Jul-28 05:33N 29°44' W 095°12'0 0.3
2014-Jul-28 04:33N 29°44' W 095°12'0 0.0
2014-Jul-28 03:33N 29°44' W 095°12'0 0.0
2014-Jul-28 02:33N 29°44' W 095°12'0 0.0
2014-Jul-28 01:33N 29°44' W 095°12'0 0.0
2014-Jul-28 00:33N 29°44' W 095°12'0 0.2
2014-Jul-27 23:33N 29°44' W 095°12'0 0.0
2014-Jul-27 22:33N 29°44' W 095°12'0 0.0
2014-Jul-27 21:33N 29°44' W 095°12'0 0.0
2014-Jul-27 20:33N 29°44' W 095°12'0 0.0
2014-Jul-27 19:33N 29°44' W 095°12'0 0.0
2014-Jul-27 18:33N 29°44' W 095°12'0 0.0
2014-Jul-27 17:33N 29°44' W 095°12'0 0.1
2014-Jul-27 16:33N 29°44' W 095°12'0 0.0
2014-Jul-27 15:33N 29°44' W 095°12'0 0.0
2014-Jul-27 14:33N 29°44' W 095°12'0 0.0
2014-Jul-27 13:33N 29°44' W 095°12'0 0.0
2014-Jul-27 12:33N 29°44' W 095°12'0 0.0
2014-Jul-27 11:33N 29°44' W 095°12'0 0.0
2014-Jul-27 10:33N 29°44' W 095°12'0 0.0
2014-Jul-27 09:33N 29°44' W 095°12'0 0.0
2014-Jul-27 08:33N 29°44' W 095°12'3 2.6
2014-Jul-27 07:33N 29°44' W 095°09'5 5.1
2014-Jul-27 06:33N 29°47' W 095°04'0 0.3
2014-Jul-27 05:33N 29°47' W 095°05'1 1.4
2014-Jul-27 04:33N 29°46' W 095°06'1 0.8
2014-Jul-27 03:34N 29°46' W 095°05'1 0.6
2014-Jul-27 02:33N 29°45' W 095°06'0 0.0
2014-Jul-27 01:33N 29°45' W 095°06'3 2.5
2014-Jul-27 00:33N 29°47' W 095°04'4 3.6
2014-Jul-26 23:33N 29°44' W 095°02'5 4.8
2014-Jul-26 22:33N 29°40' W 094°59'6 5.5
2014-Jul-26 21:33N 29°35' W 094°56'6 6.0
2014-Jul-26 20:33N 29°30' W 094°52'6 5.8
2014-Jul-26 19:33N 29°25' W 094°50'4 4.2
2014-Jul-26 18:33N 29°21' W 094°49'0 0.0
2014-Jul-26 17:26N 29°21' W 094°49'  
2014-Jul-20 03:32N 29°28' W 094°51'5 5.5
2014-Jul-20 02:33N 29°33' W 094°54'6 5.6
2014-Jul-20 01:33N 29°38' W 094°58'5 5.5
2014-Jul-20 00:33N 29°42' W 095°01'5 5.1
2014-Jul-19 23:33N 29°46' W 095°05'5 4.8
2014-Jul-19 22:33N 29°45' W 095°11'2 1.9
2014-Jul-19 21:33N 29°44' W 095°12'0 0.1
2014-Jul-19 20:33N 29°44' W 095°12'0 0.0
2014-Jul-19 19:33N 29°44' W 095°12'0 0.0
2014-Jul-19 18:33N 29°44' W 095°12'0 0.0
2014-Jul-19 17:33N 29°44' W 095°12'0 0.0
2014-Jul-19 16:33N 29°44' W 095°12'0 0.2
2014-Jul-19 15:33N 29°44' W 095°12'0 0.4
2014-Jul-19 14:33N 29°43' W 095°13'1 0.9
2014-Jul-19 13:33N 29°44' W 095°12'  

Dump ship's entire track history